sensor_id;sensor_type;location;lat;lon;timestamp;temperature;humidity
4079;DHT22;2054;47.858;11.156;2023-08-08T02:46:32;11.60;99.90
4079;DHT22;2054;47.858;11.156;2023-08-08T02:48:59;11.70;99.90
4079;DHT22;2054;47.858;11.156;2023-08-08T02:51:26;11.70;99.90
4079;DHT22;2054;47.858;11.156;2023-08-08T02:53:53;11.70;99.90
4079;DHT22;2054;47.858;11.156;2023-08-08T02:56:20;11.70;99.90
4079;DHT22;2054;47.858;11.156;2023-08-08T02:58:47;11.70;99.90
4079;DHT22;2054;47.858;11.156;2023-08-08T03:01:14;11.70;99.90
4079;DHT22;2054;47.858;11.156;2023-08-08T03:03:42;11.70;99.90
4079;DHT22;2054;47.858;11.156;2023-08-08T03:06:09;11.80;99.90
4079;DHT22;2054;47.858;11.156;2023-08-08T03:08:36;11.80;99.90
4079;DHT22;2054;47.858;11.156;2023-08-08T03:11:03;11.80;99.90
4079;DHT22;2054;47.858;11.156;2023-08-08T03:13:30;11.80;99.90
4079;DHT22;2054;47.858;11.156;2023-08-08T03:15:57;11.80;99.90
4079;DHT22;2054;47.858;11.156;2023-08-08T03:18:24;11.70;99.90
4079;DHT22;2054;47.858;11.156;2023-08-08T03:20:52;11.70;99.90
4079;DHT22;2054;47.858;11.156;2023-08-08T03:23:19;11.80;99.90
4079;DHT22;2054;47.858;11.156;2023-08-08T03:25:48;11.80;99.90
4079;DHT22;2054;47.858;11.156;2023-08-08T03:28:15;11.70;99.90
4079;DHT22;2054;47.858;11.156;2023-08-08T03:30:42;11.80;99.90
4079;DHT22;2054;47.858;11.156;2023-08-08T03:33:08;11.80;99.90
4079;DHT22;2054;47.858;11.156;2023-08-08T03:35:35;11.80;99.90
4079;DHT22;2054;47.858;11.156;2023-08-08T03:38:04;11.90;99.90
4079;DHT22;2054;47.858;11.156;2023-08-08T03:40:31;11.90;99.90
4079;DHT22;2054;47.858;11.156;2023-08-08T03:42:58;12.00;99.90
4079;DHT22;2054;47.858;11.156;2023-08-08T03:45:24;12.00;99.90
4079;DHT22;2054;47.858;11.156;2023-08-08T03:47:52;12.00;99.90
4079;DHT22;2054;47.858;11.156;2023-08-08T03:50:19;12.00;99.90
4079;DHT22;2054;47.858;11.156;2023-08-08T03:52:46;12.10;99.90
4079;DHT22;2054;47.858;11.156;2023-08-08T03:55:14;12.20;99.90
4079;DHT22;2054;47.858;11.156;2023-08-08T03:57:41;12.20;99.90
4079;DHT22;2054;47.858;11.156;2023-08-08T04:00:08;12.20;99.90
4079;DHT22;2054;47.858;11.156;2023-08-08T04:02:37;12.20;99.90
4079;DHT22;2054;47.858;11.156;2023-08-08T04:05:04;12.30;99.90
4079;DHT22;2054;47.858;11.156;2023-08-08T04:07:31;12.30;99.90
4079;DHT22;2054;47.858;11.156;2023-08-08T04:09:58;12.30;99.90
4079;DHT22;2054;47.858;11.156;2023-08-08T04:12:26;12.40;99.90
4079;DHT22;2054;47.858;11.156;2023-08-08T04:14:53;12.40;99.90
4079;DHT22;2054;47.858;11.156;2023-08-08T04:17:20;12.40;99.90
4079;DHT22;2054;47.858;11.156;2023-08-08T04:19:47;12.40;99.90
4079;DHT22;2054;47.858;11.156;2023-08-08T04:22:14;12.40;99.90
4079;DHT22;2054;47.858;11.156;2023-08-08T04:24:41;12.50;99.90
4079;DHT22;2054;47.858;11.156;2023-08-08T04:27:08;12.50;99.90
4079;DHT22;2054;47.858;11.156;2023-08-08T04:29:37;12.50;99.90
4079;DHT22;2054;47.858;11.156;2023-08-08T04:32:05;12.50;99.90
4079;DHT22;2054;47.858;11.156;2023-08-08T04:34:32;12.60;99.90
4079;DHT22;2054;47.858;11.156;2023-08-08T04:36:59;12.60;99.90
4079;DHT22;2054;47.858;11.156;2023-08-08T04:39:25;12.70;99.90
4079;DHT22;2054;47.858;11.156;2023-08-08T04:41:52;12.70;99.90
4079;DHT22;2054;47.858;11.156;2023-08-08T04:44:19;12.70;99.90
4079;DHT22;2054;47.858;11.156;2023-08-08T04:46:47;12.80;99.90
4079;DHT22;2054;47.858;11.156;2023-08-08T04:49:14;12.80;99.90
4079;DHT22;2054;47.858;11.156;2023-08-08T04:51:41;12.90;99.90
4079;DHT22;2054;47.858;11.156;2023-08-08T04:54:08;12.90;99.90
4079;DHT22;2054;47.858;11.156;2023-08-08T04:56:35;12.90;99.90
4079;DHT22;2054;47.858;11.156;2023-08-08T04:59:02;12.90;99.90
4079;DHT22;2054;47.858;11.156;2023-08-08T05:01:28;12.80;99.90
4079;DHT22;2054;47.858;11.156;2023-08-08T05:03:57;12.90;99.90
4079;DHT22;2054;47.858;11.156;2023-08-08T05:06:24;12.80;99.90
4079;DHT22;2054;47.858;11.156;2023-08-08T05:08:52;12.80;99.90
4079;DHT22;2054;47.858;11.156;2023-08-08T05:11:19;12.90;99.90
4079;DHT22;2054;47.858;11.156;2023-08-08T05:13:45;12.90;99.90
4079;DHT22;2054;47.858;11.156;2023-08-08T05:16:13;12.90;99.90
4079;DHT22;2054;47.858;11.156;2023-08-08T05:18:40;12.90;99.90
4079;DHT22;2054;47.858;11.156;2023-08-08T05:21:11;13.10;99.90
4079;DHT22;2054;47.858;11.156;2023-08-08T05:23:37;13.20;99.90
4079;DHT22;2054;47.858;11.156;2023-08-08T05:26:04;13.30;99.90
4079;DHT22;2054;47.858;11.156;2023-08-08T05:28:31;13.30;99.90
4079;DHT22;2054;47.858;11.156;2023-08-08T05:30:58;13.40;99.90
4079;DHT22;2054;47.858;11.156;2023-08-08T05:33:26;13.50;99.90
4079;DHT22;2054;47.858;11.156;2023-08-08T05:35:53;13.50;99.90
4079;DHT22;2054;47.858;11.156;2023-08-08T05:38:21;13.50;99.90
4079;DHT22;2054;47.858;11.156;2023-08-08T05:40:48;13.60;99.90
4079;DHT22;2054;47.858;11.156;2023-08-08T05:43:15;13.70;99.90
4079;DHT22;2054;47.858;11.156;2023-08-08T05:45:44;13.80;99.90
4079;DHT22;2054;47.858;11.156;2023-08-08T05:48:11;13.90;99.90
4079;DHT22;2054;47.858;11.156;2023-08-08T05:50:38;13.90;99.90
4079;DHT22;2054;47.858;11.156;2023-08-08T05:53:05;14.00;99.90
4079;DHT22;2054;47.858;11.156;2023-08-08T05:55:34;14.10;99.90
4079;DHT22;2054;47.858;11.156;2023-08-08T05:58:00;14.10;99.90
4079;DHT22;2054;47.858;11.156;2023-08-08T06:00:27;14.20;99.90
4079;DHT22;2054;47.858;11.156;2023-08-08T06:02:54;14.30;99.90
4079;DHT22;2054;47.858;11.156;2023-08-08T06:05:22;14.40;99.90
4079;DHT22;2054;47.858;11.156;2023-08-08T06:07:49;14.50;99.90
4079;DHT22;2054;47.858;11.156;2023-08-08T06:10:16;14.50;99.90
4079;DHT22;2054;47.858;11.156;2023-08-08T06:12:44;14.50;99.90
4079;DHT22;2054;47.858;11.156;2023-08-08T06:15:11;14.50;99.90
4079;DHT22;2054;47.858;11.156;2023-08-08T06:17:38;14.70;99.90
4079;DHT22;2054;47.858;11.156;2023-08-08T06:20:06;14.80;99.90
4079;DHT22;2054;47.858;11.156;2023-08-08T06:22:33;14.90;99.90
4079;DHT22;2054;47.858;11.156;2023-08-08T06:25:00;15.00;99.90
4079;DHT22;2054;47.858;11.156;2023-08-08T06:27:27;14.90;99.90
4079;DHT22;2054;47.858;11.156;2023-08-08T06:29:55;15.00;99.90
4079;DHT22;2054;47.858;11.156;2023-08-08T06:32:22;15.00;99.90
4079;DHT22;2054;47.858;11.156;2023-08-08T06:34:49;15.10;99.90
4079;DHT22;2054;47.858;11.156;2023-08-08T06:37:16;15.20;99.90
4079;DHT22;2054;47.858;11.156;2023-08-08T06:39:43;15.20;99.90
4079;DHT22;2054;47.858;11.156;2023-08-08T06:42:10;15.10;99.90
4079;DHT22;2054;47.858;11.156;2023-08-08T06:44:42;15.20;99.90
4079;DHT22;2054;47.858;11.156;2023-08-08T06:47:10;15.20;99.90
4079;DHT22;2054;47.858;11.156;2023-08-08T06:49:38;15.30;99.90
4079;DHT22;2054;47.858;11.156;2023-08-08T06:52:05;15.30;99.90
4079;DHT22;2054;47.858;11.156;2023-08-08T06:54:32;15.40;99.90
4079;DHT22;2054;47.858;11.156;2023-08-08T06:57:00;15.50;99.90
4079;DHT22;2054;47.858;11.156;2023-08-08T06:59:28;15.60;99.90
4079;DHT22;2054;47.858;11.156;2023-08-08T07:01:54;15.70;99.90
4079;DHT22;2054;47.858;11.156;2023-08-08T07:04:24;15.70;99.90
4079;DHT22;2054;47.858;11.156;2023-08-08T07:06:51;15.70;99.90
4079;DHT22;2054;47.858;11.156;2023-08-08T07:09:18;15.80;99.90
4079;DHT22;2054;47.858;11.156;2023-08-08T07:11:45;15.80;99.90
4079;DHT22;2054;47.858;11.156;2023-08-08T07:14:11;15.90;99.90
4079;DHT22;2054;47.858;11.156;2023-08-08T07:16:38;15.80;99.90
4079;DHT22;2054;47.858;11.156;2023-08-08T07:19:05;15.90;99.90
4079;DHT22;2054;47.858;11.156;2023-08-08T07:21:34;16.00;99.90
4079;DHT22;2054;47.858;11.156;2023-08-08T07:24:01;16.10;99.90
4079;DHT22;2054;47.858;11.156;2023-08-08T07:26:28;16.20;99.90
4079;DHT22;2054;47.858;11.156;2023-08-08T07:28:55;16.40;99.90
4079;DHT22;2054;47.858;11.156;2023-08-08T07:31:22;16.60;99.90
4079;DHT22;2054;47.858;11.156;2023-08-08T07:33:49;16.70;99.90
4079;DHT22;2054;47.858;11.156;2023-08-08T07:36:16;16.80;99.90
4079;DHT22;2054;47.858;11.156;2023-08-08T07:38:44;16.90;99.90
4079;DHT22;2054;47.858;11.156;2023-08-08T07:41:11;17.00;99.90
4079;DHT22;2054;47.858;11.156;2023-08-08T07:43:38;17.10;99.90
4079;DHT22;2054;47.858;11.156;2023-08-08T07:46:04;16.90;99.90
4079;DHT22;2054;47.858;11.156;2023-08-08T07:48:31;16.90;99.90
4079;DHT22;2054;47.858;11.156;2023-08-08T07:50:58;16.90;99.90
4079;DHT22;2054;47.858;11.156;2023-08-08T07:53:25;16.90;99.90
4079;DHT22;2054;47.858;11.156;2023-08-08T07:55:53;16.90;99.90
4079;DHT22;2054;47.858;11.156;2023-08-08T07:58:20;17.10;99.90
4079;DHT22;2054;47.858;11.156;2023-08-08T08:00:51;17.20;99.90
4079;DHT22;2054;47.858;11.156;2023-08-08T08:03:18;17.40;99.90
4079;DHT22;2054;47.858;11.156;2023-08-08T08:05:45;17.50;99.90
4079;DHT22;2054;47.858;11.156;2023-08-08T08:08:12;17.60;99.90
4079;DHT22;2054;47.858;11.156;2023-08-08T08:10:39;17.60;99.90
4079;DHT22;2054;47.858;11.156;2023-08-08T08:13:07;17.70;99.90
4079;DHT22;2054;47.858;11.156;2023-08-08T16:51:53;23.20;63.30
4079;DHT22;2054;47.858;11.156;2023-08-08T16:54:20;23.00;64.40
4079;DHT22;2054;47.858;11.156;2023-08-08T16:56:48;23.00;64.90
4079;DHT22;2054;47.858;11.156;2023-08-08T16:59:14;23.10;65.40
4079;DHT22;2054;47.858;11.156;2023-08-08T17:01:43;23.30;65.60
4079;DHT22;2054;47.858;11.156;2023-08-08T17:04:10;23.60;64.20
4079;DHT22;2054;47.858;11.156;2023-08-08T17:06:37;24.30;63.90
4079;DHT22;2054;47.858;11.156;2023-08-08T17:09:05;24.90;62.50
4079;DHT22;2054;47.858;11.156;2023-08-08T17:11:33;25.10;61.30
4079;DHT22;2054;47.858;11.156;2023-08-08T17:14:00;24.70;61.20
4079;DHT22;2054;47.858;11.156;2023-08-08T17:16:27;24.30;61.30
4079;DHT22;2054;47.858;11.156;2023-08-08T17:18:55;24.10;62.80
4079;DHT22;2054;47.858;11.156;2023-08-08T17:21:22;23.80;63.70
4079;DHT22;2054;47.858;11.156;2023-08-08T17:23:49;23.30;64.20
4079;DHT22;2054;47.858;11.156;2023-08-08T17:26:16;23.10;65.80
4079;DHT22;2054;47.858;11.156;2023-08-08T17:28:42;23.20;67.00
4079;DHT22;2054;47.858;11.156;2023-08-08T17:31:09;23.90;67.40
4079;DHT22;2054;47.858;11.156;2023-08-08T18:00:44;25.60;59.00
4079;DHT22;2054;47.858;11.156;2023-08-08T18:03:10;25.50;59.30
4079;DHT22;2054;47.858;11.156;2023-08-08T18:05:38;24.80;60.50
4079;DHT22;2054;47.858;11.156;2023-08-08T18:08:05;24.20;62.60
4079;DHT22;2054;47.858;11.156;2023-08-08T18:10:33;23.40;62.50
4079;DHT22;2054;47.858;11.156;2023-08-08T18:13:01;22.60;64.70
4079;DHT22;2054;47.858;11.156;2023-08-08T18:15:27;22.20;66.60
4079;DHT22;2054;47.858;11.156;2023-08-08T18:17:54;21.80;68.10
4079;DHT22;2054;47.858;11.156;2023-08-08T18:20:22;21.40;68.40
4079;DHT22;2054;47.858;11.156;2023-08-08T18:22:49;21.10;70.30
4079;DHT22;2054;47.858;11.156;2023-08-08T18:25:17;20.80;71.00
4079;DHT22;2054;47.858;11.156;2023-08-08T18:27:46;20.50;70.00
4079;DHT22;2054;47.858;11.156;2023-08-08T18:30:13;20.30;70.80
4079;DHT22;2054;47.858;11.156;2023-08-08T18:32:43;20.10;71.70
4079;DHT22;2054;47.858;11.156;2023-08-08T18:35:10;19.90;73.40
4079;DHT22;2054;47.858;11.156;2023-08-08T18:37:39;19.60;70.80
4079;DHT22;2054;47.858;11.156;2023-08-08T18:40:08;19.50;73.20
4079;DHT22;2054;47.858;11.156;2023-08-08T18:42:36;19.40;75.00
4079;DHT22;2054;47.858;11.156;2023-08-08T18:45:05;19.30;75.10
4079;DHT22;2054;47.858;11.156;2023-08-08T18:47:33;19.10;76.20
4079;DHT22;2054;47.858;11.156;2023-08-08T18:50:00;19.00;76.60
4079;DHT22;2054;47.858;11.156;2023-08-08T18:52:27;19.00;77.50
4079;DHT22;2054;47.858;11.156;2023-08-08T18:54:53;18.80;76.90
4079;DHT22;2054;47.858;11.156;2023-08-08T18:57:20;18.70;77.80
4079;DHT22;2054;47.858;11.156;2023-08-08T18:59:47;18.60;78.70
4079;DHT22;2054;47.858;11.156;2023-08-08T19:02:15;18.60;78.30
4079;DHT22;2054;47.858;11.156;2023-08-08T19:04:42;18.50;79.00
4079;DHT22;2054;47.858;11.156;2023-08-08T19:07:09;18.40;78.80
4079;DHT22;2054;47.858;11.156;2023-08-08T19:09:36;18.30;79.80
4079;DHT22;2054;47.858;11.156;2023-08-08T19:12:04;18.20;80.80
4079;DHT22;2054;47.858;11.156;2023-08-08T19:14:30;18.10;80.30
4079;DHT22;2054;47.858;11.156;2023-08-08T19:16:57;18.00;80.30
4079;DHT22;2054;47.858;11.156;2023-08-08T19:19:26;18.00;81.30
4079;DHT22;2054;47.858;11.156;2023-08-08T19:21:53;18.00;81.10
4079;DHT22;2054;47.858;11.156;2023-08-08T19:24:20;17.90;81.30
4079;DHT22;2054;47.858;11.156;2023-08-08T19:26:46;17.90;81.40
4079;DHT22;2054;47.858;11.156;2023-08-08T19:29:13;17.80;82.10
4079;DHT22;2054;47.858;11.156;2023-08-08T19:31:40;17.80;82.70
4079;DHT22;2054;47.858;11.156;2023-08-08T19:34:07;17.70;83.20
4079;DHT22;2054;47.858;11.156;2023-08-08T19:36:35;17.60;83.40
4079;DHT22;2054;47.858;11.156;2023-08-08T19:39:02;17.60;83.40
4079;DHT22;2054;47.858;11.156;2023-08-08T19:41:30;17.60;83.60
4079;DHT22;2054;47.858;11.156;2023-08-08T19:43:57;17.60;84.10
4079;DHT22;2054;47.858;11.156;2023-08-08T19:46:24;17.50;84.50
4079;DHT22;2054;47.858;11.156;2023-08-08T19:48:51;17.50;85.70
4079;DHT22;2054;47.858;11.156;2023-08-08T19:51:18;17.40;86.50
4079;DHT22;2054;47.858;11.156;2023-08-08T19:53:46;17.40;86.70
4079;DHT22;2054;47.858;11.156;2023-08-08T19:56:14;17.30;87.10
4079;DHT22;2054;47.858;11.156;2023-08-08T19:58:41;17.20;88.10
4079;DHT22;2054;47.858;11.156;2023-08-08T20:01:08;17.20;90.00
4079;DHT22;2054;47.858;11.156;2023-08-08T20:03:35;17.10;90.40
4079;DHT22;2054;47.858;11.156;2023-08-08T20:06:03;17.00;90.90
4079;DHT22;2054;47.858;11.156;2023-08-08T20:08:30;16.90;91.60
4079;DHT22;2054;47.858;11.156;2023-08-08T20:10:59;16.80;92.00
4079;DHT22;2054;47.858;11.156;2023-08-08T20:13:27;16.80;92.30
4079;DHT22;2054;47.858;11.156;2023-08-08T20:15:54;16.70;92.70
4079;DHT22;2054;47.858;11.156;2023-08-08T20:18:21;16.60;93.00
4079;DHT22;2054;47.858;11.156;2023-08-08T20:20:48;16.60;93.50
4079;DHT22;2054;47.858;11.156;2023-08-08T20:23:15;16.50;93.60
4079;DHT22;2054;47.858;11.156;2023-08-08T20:25:42;16.50;94.40
4079;DHT22;2054;47.858;11.156;2023-08-08T20:28:10;16.40;94.90
4079;DHT22;2054;47.858;11.156;2023-08-08T20:30:37;16.40;94.60
4079;DHT22;2054;47.858;11.156;2023-08-08T20:33:05;16.30;94.70
4079;DHT22;2054;47.858;11.156;2023-08-08T20:35:32;16.30;95.30
4079;DHT22;2054;47.858;11.156;2023-08-08T20:38:00;16.20;95.80
4079;DHT22;2054;47.858;11.156;2023-08-08T20:40:27;16.20;96.30
4079;DHT22;2054;47.858;11.156;2023-08-08T20:42:54;16.20;96.10
4079;DHT22;2054;47.858;11.156;2023-08-08T20:45:23;16.10;96.60
4079;DHT22;2054;47.858;11.156;2023-08-08T20:47:50;16.10;97.10
4079;DHT22;2054;47.858;11.156;2023-08-08T20:50:17;16.10;97.40
4079;DHT22;2054;47.858;11.156;2023-08-08T20:52:44;16.00;97.60
4079;DHT22;2054;47.858;11.156;2023-08-08T20:55:11;16.00;98.00
4079;DHT22;2054;47.858;11.156;2023-08-08T20:57:38;15.90;98.40
